ECB weather

El Aceituno Airport
Ibague, Tolima Department, Colombia

Public forecast

Using degrees Celsius for public forecast. Weather courtesy of forecast.io.

Closest aviation weather report (METAR) to El Aceituno Airport

Closest report is Perales Airport, 7.9 nm (14.7 km) NW. Retrieved 2019/12/06 16:00 UTC (2 hours ago):

SKIB 061600Z 13007KT 9999 BKN030TCU 25/22 A3003 RMK TCU N/SE

Closest aviation forecast (TAF) to El Aceituno Airport

Forecast is more than 12 hours old.

Closest forecast is El Eden Airport, 44.9 nm (83.1 km) W. Retrieved 2017/01/12 18:15 UTC (3 years ago):

TAF TAF SKAR 121700Z 1218/1318 33006KT 9999 SCT017 SCT090 TEMPO 1221/1224 8000 VCSH SCT017TCU PROB40 TEMPO 1300/1300 7000 TSRA SCT013CB BECMG 1302/1303 VRB02KT TEMPO 1311/1313 7000 VCFG SCT015 TX26/1220Z TN18/1311Z